createdAt,value
2018-08-27T00:00:58.082Z,15.34
2018-08-27T00:03:27.065Z,15.28
2018-08-27T00:05:55.637Z,15.36
2018-08-27T00:08:24.161Z,15.45
2018-08-27T00:10:52.561Z,15.43
2018-08-27T00:13:20.957Z,15.44
2018-08-27T00:15:49.377Z,15.50
2018-08-27T00:18:17.788Z,15.53
2018-08-27T00:20:46.445Z,15.47
2018-08-27T00:23:14.851Z,15.54
2018-08-27T00:25:43.316Z,15.40
2018-08-27T00:28:11.708Z,15.27
2018-08-27T00:30:40.189Z,15.26
2018-08-27T00:33:08.597Z,15.15
2018-08-27T00:35:37.021Z,15.08
2018-08-27T00:38:05.415Z,15.01
2018-08-27T00:40:33.818Z,14.98
2018-08-27T00:43:02.221Z,14.89
2018-08-27T00:45:30.687Z,14.87
2018-08-27T00:47:59.145Z,14.84
2018-08-27T00:50:27.602Z,14.94
2018-08-27T00:52:56.017Z,14.93
2018-08-27T00:55:25.025Z,14.89
2018-08-27T00:57:53.442Z,14.86
2018-08-27T01:00:21.821Z,14.72
2018-08-27T01:02:50.229Z,14.64
2018-08-27T01:05:18.786Z,14.57
2018-08-27T01:07:47.204Z,14.60
2018-08-27T01:10:15.670Z,14.48
2018-08-27T01:12:44.135Z,14.44
2018-08-27T01:15:12.602Z,14.37
2018-08-27T01:17:41.052Z,14.49
2018-08-27T01:20:09.474Z,14.27
2018-08-27T01:22:37.992Z,14.21
2018-08-27T01:25:06.649Z,14.22
2018-08-27T01:27:35.077Z,14.22
2018-08-27T01:30:03.517Z,14.23
2018-08-27T01:32:32.374Z,14.27
2018-08-27T01:35:00.784Z,14.24
2018-08-27T01:37:29.186Z,14.26
2018-08-27T01:39:57.649Z,14.21
2018-08-27T01:42:26.869Z,14.15
2018-08-27T01:44:55.693Z,14.19
2018-08-27T01:47:24.105Z,14.26
2018-08-27T01:49:52.525Z,14.36
2018-08-27T01:52:20.917Z,14.35
2018-08-27T01:54:49.338Z,14.40
2018-08-27T01:57:17.725Z,14.42
2018-08-27T01:59:46.170Z,14.45
2018-08-27T02:02:14.604Z,14.42
2018-08-27T02:04:43.156Z,14.39
2018-08-27T02:07:11.567Z,14.43
2018-08-27T02:09:39.967Z,14.45
2018-08-27T02:12:08.461Z,14.48
2018-08-27T02:14:36.909Z,14.51
2018-08-27T02:17:05.467Z,14.50
2018-08-27T02:19:33.908Z,14.50
2018-08-27T02:22:02.325Z,14.55
2018-08-27T02:24:30.737Z,14.55
2018-08-27T02:26:59.182Z,14.55
2018-08-27T02:29:27.604Z,14.45
2018-08-27T02:31:55.986Z,14.56
2018-08-27T02:34:24.381Z,14.34
2018-08-27T02:36:52.866Z,14.37
2018-08-27T02:39:21.320Z,14.38
2018-08-27T02:41:49.892Z,14.32
2018-08-27T02:44:18.297Z,14.30
2018-08-27T02:46:46.706Z,14.27
2018-08-27T02:49:15.093Z,14.30
2018-08-27T02:51:43.529Z,14.27
2018-08-27T02:54:28.542Z,14.31
2018-08-27T02:56:57.076Z,14.31
2018-08-27T02:59:25.470Z,14.30
2018-08-27T03:01:53.925Z,14.38
2018-08-27T03:04:22.386Z,14.33
2018-08-27T03:06:51.055Z,14.36
2018-08-27T03:09:19.440Z,14.64
2018-08-27T03:11:47.837Z,14.64
2018-08-27T03:14:16.245Z,14.67
2018-08-27T03:16:44.665Z,14.74
2018-08-27T03:19:13.078Z,14.70
2018-08-27T03:21:41.498Z,14.69
2018-08-27T03:24:09.916Z,14.66
2018-08-27T03:26:38.373Z,14.87
2018-08-27T03:29:06.836Z,15.04
2018-08-27T03:31:35.254Z,15.21
2018-08-27T03:34:03.949Z,15.21
2018-08-27T03:36:32.440Z,15.41
2018-08-27T03:39:00.938Z,15.42
2018-08-27T03:41:29.490Z,15.50
2018-08-27T03:43:58.110Z,15.48
2018-08-27T03:46:26.611Z,15.58
2018-08-27T03:48:55.239Z,15.57
2018-08-27T03:51:23.707Z,15.63
2018-08-27T03:53:52.210Z,15.66
2018-08-27T03:56:20.710Z,15.71
2018-08-27T03:58:49.183Z,15.68
2018-08-27T04:01:17.626Z,15.68
2018-08-27T04:03:45.988Z,15.71
2018-08-27T04:06:14.354Z,15.71
2018-08-27T04:08:42.847Z,15.70
2018-08-27T04:11:11.202Z,15.68
2018-08-27T04:13:39.633Z,15.66
2018-08-27T04:16:08.003Z,15.65
2018-08-27T04:18:36.396Z,15.66
2018-08-27T04:21:04.768Z,15.61
2018-08-27T04:23:33.168Z,15.67
2018-08-27T04:26:01.549Z,15.62
2018-08-27T04:28:29.901Z,15.64
2018-08-27T04:30:58.567Z,15.64
2018-08-27T04:33:26.918Z,15.68
2018-08-27T04:35:55.785Z,15.66
2018-08-27T04:38:24.154Z,15.65
2018-08-27T04:40:52.526Z,15.67
2018-08-27T04:43:20.885Z,15.69
2018-08-27T04:45:49.246Z,15.71
2018-08-27T04:48:17.597Z,15.68
2018-08-27T04:50:46.006Z,15.67
2018-08-27T04:53:14.354Z,15.63
2018-08-27T04:55:42.794Z,15.64
2018-08-27T04:58:11.187Z,15.64
2018-08-27T05:00:40.937Z,15.73
2018-08-27T05:03:10.286Z,15.72
2018-08-27T05:05:38.730Z,15.74
2018-08-27T05:08:07.153Z,15.76
2018-08-27T05:10:36.107Z,15.77
2018-08-27T05:13:04.699Z,15.74
2018-08-27T05:15:33.339Z,15.74
2018-08-27T05:18:01.751Z,15.74
2018-08-27T05:20:30.182Z,15.74
2018-08-27T05:22:58.589Z,15.77
2018-08-27T05:25:26.993Z,15.80
2018-08-27T05:27:55.397Z,15.81
2018-08-27T05:30:23.789Z,15.90
2018-08-27T05:32:52.226Z,15.94
2018-08-27T05:35:20.660Z,16.02
2018-08-27T05:37:49.057Z,16.02
2018-08-27T05:40:17.428Z,16.02
2018-08-27T05:42:45.809Z,16.05
2018-08-27T05:45:14.191Z,16.05
2018-08-27T05:47:42.643Z,16.16
2018-08-27T05:50:11.026Z,16.16
2018-08-27T05:52:39.414Z,16.18
2018-08-27T05:55:07.921Z,16.28
2018-08-27T05:57:36.327Z,16.20
2018-08-27T06:00:06.716Z,16.25
2018-08-27T06:02:38.134Z,16.48
2018-08-27T06:05:06.853Z,16.50
2018-08-27T06:07:35.482Z,16.61
2018-08-27T06:10:04.169Z,16.61
2018-08-27T06:12:32.588Z,16.68
2018-08-27T06:15:01.138Z,16.76
2018-08-27T06:17:32.427Z,16.84
2018-08-27T06:20:01.001Z,16.86
2018-08-27T06:22:29.505Z,16.88
2018-08-27T06:24:57.840Z,16.85
2018-08-27T06:27:26.238Z,16.90
2018-08-27T06:29:54.650Z,16.84
2018-08-27T06:32:23.108Z,16.73
2018-08-27T06:34:51.510Z,16.75
2018-08-27T06:37:19.904Z,16.82
2018-08-27T06:39:48.441Z,16.76
2018-08-27T06:42:16.855Z,16.80
2018-08-27T06:44:45.281Z,16.81
2018-08-27T06:47:13.677Z,16.88
2018-08-27T06:49:42.077Z,16.93
2018-08-27T06:52:10.574Z,17.13
2018-08-27T06:54:39.009Z,17.13
2018-08-27T06:57:07.417Z,17.24
2018-08-27T06:59:35.802Z,17.25
2018-08-27T07:02:04.226Z,17.42
2018-08-27T07:04:32.616Z,17.60
2018-08-27T07:07:00.998Z,17.75
2018-08-27T07:09:29.393Z,17.88
2018-08-27T07:11:57.785Z,17.76
2018-08-27T07:14:26.258Z,17.68
2018-08-27T07:16:54.684Z,17.85
2018-08-27T07:19:23.086Z,18.03
2018-08-27T07:21:51.456Z,18.07
2018-08-27T07:24:19.885Z,18.27
2018-08-27T07:26:48.245Z,18.36
2018-08-27T07:29:16.630Z,18.20
2018-08-27T07:31:45.014Z,18.22
2018-08-27T07:34:13.492Z,18.33
2018-08-27T07:36:41.985Z,18.38
2018-08-27T07:39:21.529Z,18.20
2018-08-27T07:41:49.905Z,18.09
2018-08-27T07:44:18.276Z,18.03
2018-08-27T07:46:46.649Z,18.16
2018-08-27T07:49:15.318Z,18.17
2018-08-27T07:51:43.671Z,18.33
2018-08-27T07:54:12.057Z,18.29
2018-08-27T07:56:40.503Z,18.23
2018-08-27T07:59:09.090Z,18.36
2018-08-27T08:01:47.663Z,18.51
2018-08-27T08:04:16.201Z,18.52
2018-08-27T08:06:44.610Z,18.56
2018-08-27T08:09:18.849Z,18.68
2018-08-27T08:11:47.283Z,18.85
2018-08-27T08:14:15.750Z,18.86
2018-08-27T08:16:44.156Z,18.81
2018-08-27T08:19:12.593Z,18.92
2018-08-27T08:21:41.055Z,18.99
2018-08-27T08:24:09.543Z,19.17
2018-08-27T08:26:37.961Z,19.24
2018-08-27T08:29:06.425Z,19.40
2018-08-27T08:31:34.854Z,19.31
2018-08-27T08:34:03.293Z,19.42
2018-08-27T08:36:31.830Z,19.74
2018-08-27T08:39:00.282Z,19.78
2018-08-27T08:41:28.722Z,19.78
2018-08-27T08:43:57.138Z,19.72
2018-08-27T08:46:25.594Z,19.51
2018-08-27T08:48:54.001Z,19.63
2018-08-27T08:51:22.497Z,19.75
2018-08-27T08:53:50.911Z,19.75
2018-08-27T08:56:36.749Z,19.57
2018-08-27T08:59:05.169Z,19.40
2018-08-27T09:01:33.626Z,19.52
2018-08-27T09:04:02.008Z,19.51
2018-08-27T09:06:30.433Z,19.53
2018-08-27T09:08:58.847Z,19.72
2018-08-27T09:11:27.262Z,19.71
2018-08-27T09:13:55.725Z,19.83
2018-08-27T09:16:24.160Z,19.90
2018-08-27T09:18:52.539Z,19.92
2018-08-27T09:21:21.050Z,19.80
2018-08-27T09:23:49.481Z,19.85
2018-08-27T09:26:17.887Z,19.99
2018-08-27T09:28:46.410Z,20.16
2018-08-27T09:31:14.936Z,19.97
2018-08-27T09:33:43.366Z,19.89
2018-08-27T09:36:11.769Z,19.90
2018-08-27T09:38:40.158Z,19.75
2018-08-27T09:41:08.602Z,19.62
2018-08-27T09:43:36.997Z,19.70
2018-08-27T09:46:05.445Z,20.09
2018-08-27T09:48:33.830Z,20.24
2018-08-27T09:51:02.218Z,20.40
2018-08-27T09:53:30.723Z,20.50
2018-08-27T09:55:59.212Z,20.50
2018-08-27T09:58:27.687Z,20.46
2018-08-27T10:01:01.392Z,20.59
2018-08-27T10:03:29.866Z,20.62
2018-08-27T10:05:58.297Z,20.56
2018-08-27T10:08:26.715Z,20.48
2018-08-27T10:10:55.212Z,20.65
2018-08-27T10:13:23.655Z,20.74
2018-08-27T10:15:52.102Z,20.71
2018-08-27T10:18:20.537Z,20.54
2018-08-27T10:20:49.001Z,20.13
2018-08-27T10:23:17.474Z,19.99
2018-08-27T10:25:45.917Z,19.92
2018-08-27T10:28:14.358Z,20.01
2018-08-27T10:30:42.750Z,20.08
2018-08-27T10:33:11.229Z,20.18
2018-08-27T10:35:39.674Z,20.21
2018-08-27T10:38:08.126Z,20.03
2018-08-27T10:40:36.551Z,20.11
2018-08-27T10:43:05.217Z,20.14
2018-08-27T10:45:33.909Z,20.07
2018-08-27T10:48:02.346Z,20.23
2018-08-27T10:50:30.792Z,20.27
2018-08-27T10:52:59.273Z,20.19
2018-08-27T10:55:27.666Z,20.21
2018-08-27T10:57:56.097Z,20.25
2018-08-27T11:00:24.489Z,20.53
2018-08-27T11:02:52.869Z,20.61
2018-08-27T11:05:21.270Z,20.53
2018-08-27T11:07:51.981Z,20.61
2018-08-27T11:10:20.629Z,20.82
2018-08-27T11:12:49.390Z,21.18
2018-08-27T11:15:18.510Z,21.18
2018-08-27T11:17:47.127Z,21.13
2018-08-27T11:20:15.611Z,21.22
2018-08-27T11:22:43.929Z,21.29
2018-08-27T11:25:12.346Z,21.46
2018-08-27T11:27:40.756Z,21.84
2018-08-27T11:30:09.562Z,21.93
2018-08-27T11:32:38.370Z,22.18
2018-08-27T11:35:07.849Z,22.10
2018-08-27T11:37:36.390Z,22.28
2018-08-27T11:40:08.378Z,22.65
2018-08-27T11:42:38.101Z,22.75
2018-08-27T11:45:06.666Z,22.41
2018-08-27T11:47:35.066Z,22.60
2018-08-27T11:50:03.644Z,22.53
2018-08-27T11:52:32.050Z,22.93
2018-08-27T11:55:00.944Z,23.03
2018-08-27T11:57:29.504Z,22.80
2018-08-27T12:00:00.292Z,22.58
2018-08-27T12:02:38.540Z,22.57
2018-08-27T12:05:06.993Z,22.50
2018-08-27T12:07:36.265Z,22.72
2018-08-27T12:10:04.798Z,22.75
2018-08-27T12:12:33.230Z,23.14
2018-08-27T12:15:01.686Z,23.04
2018-08-27T12:17:30.095Z,22.67
2018-08-27T12:19:58.539Z,22.41
2018-08-27T12:22:26.945Z,22.31
2018-08-27T12:24:56.422Z,22.13
2018-08-27T12:27:24.825Z,22.29
2018-08-27T12:29:53.285Z,22.16
2018-08-27T12:32:21.739Z,22.36
2018-08-27T12:34:50.168Z,22.85
2018-08-27T12:37:18.585Z,23.07
2018-08-27T12:39:46.997Z,23.19
2018-08-27T12:42:15.428Z,23.29
2018-08-27T12:44:43.914Z,23.46
2018-08-27T12:47:12.463Z,23.50
2018-08-27T12:49:40.941Z,23.34
2018-08-27T12:52:09.338Z,23.75
2018-08-27T12:54:37.769Z,23.51
2018-08-27T12:57:06.215Z,23.96
2018-08-27T12:59:34.634Z,23.85
2018-08-27T13:02:03.069Z,23.80
2018-08-27T13:04:31.560Z,24.24
2018-08-27T13:06:59.965Z,24.18
2018-08-27T13:09:28.457Z,24.22
2018-08-27T13:11:56.845Z,24.06
2018-08-27T13:14:25.258Z,23.94
2018-08-27T13:16:53.657Z,24.43
2018-08-27T13:19:22.073Z,24.45
2018-08-27T13:21:50.595Z,23.84
2018-08-27T13:24:19.033Z,23.60
2018-08-27T13:26:47.708Z,23.86
2018-08-27T13:29:16.146Z,24.33
2018-08-27T13:31:44.692Z,24.92
2018-08-27T13:34:13.101Z,25.10
2018-08-27T13:36:41.522Z,24.03
2018-08-27T13:39:10.817Z,23.46
2018-08-27T13:41:39.245Z,23.55
2018-08-27T13:44:07.683Z,23.87
2018-08-27T13:46:36.120Z,23.51
2018-08-27T13:49:04.570Z,23.02
2018-08-27T13:51:48.765Z,23.12
2018-08-27T13:54:17.943Z,22.94
2018-08-27T13:56:46.578Z,23.21
2018-08-27T13:59:14.979Z,22.85
2018-08-27T14:01:43.405Z,22.97
2018-08-27T14:04:11.837Z,22.87
2018-08-27T14:06:40.254Z,23.08
2018-08-27T14:09:09.164Z,23.83
2018-08-27T14:11:37.681Z,24.18
2018-08-27T14:14:06.240Z,24.57
2018-08-27T14:16:35.171Z,24.21
2018-08-27T14:19:03.673Z,23.36
2018-08-27T14:21:32.071Z,24.05
2018-08-27T14:24:00.538Z,24.35
2018-08-27T14:26:28.997Z,25.17
2018-08-27T14:28:57.381Z,25.31
2018-08-27T14:31:25.799Z,24.70
2018-08-27T14:33:54.257Z,24.90
2018-08-27T14:36:22.677Z,25.46
2018-08-27T14:38:51.242Z,24.74
2018-08-27T14:41:19.528Z,24.45
2018-08-27T14:43:47.946Z,25.14
2018-08-27T14:46:16.366Z,25.69
2018-08-27T14:48:44.785Z,25.25
2018-08-27T14:51:13.209Z,25.25
2018-08-27T14:53:41.606Z,24.34
2018-08-27T14:56:10.087Z,24.30
2018-08-27T14:58:38.398Z,24.00
2018-08-27T15:01:10.193Z,24.55
2018-08-27T15:03:39.065Z,24.47
2018-08-27T15:06:07.570Z,24.77
2018-08-27T15:08:36.282Z,25.08
2018-08-27T15:11:04.734Z,25.51
2018-08-27T15:13:33.097Z,25.24
2018-08-27T15:16:01.482Z,25.30
2018-08-27T15:18:29.853Z,24.96
2018-08-27T15:20:58.284Z,25.04
2018-08-27T15:23:26.729Z,24.62
2018-08-27T15:25:55.922Z,24.38
2018-08-27T15:28:24.304Z,24.70
2018-08-27T15:30:52.757Z,24.29
2018-08-27T15:33:21.197Z,24.36
2018-08-27T15:35:49.593Z,24.67
2018-08-27T15:38:17.967Z,24.35
2018-08-27T15:40:46.348Z,24.88
2018-08-27T15:43:14.778Z,24.60
2018-08-27T15:45:48.369Z,24.55
2018-08-27T15:48:16.795Z,24.17
2018-08-27T15:50:45.277Z,24.09
2018-08-27T15:53:13.602Z,24.54
2018-08-27T15:55:42.067Z,24.27
2018-08-27T15:58:10.552Z,24.24
2018-08-27T16:00:38.962Z,24.28
2018-08-27T16:03:07.461Z,24.17
2018-08-27T16:05:35.955Z,23.65
2018-08-27T16:08:04.377Z,23.65
2018-08-27T16:10:32.866Z,23.59
2018-08-27T16:13:01.342Z,23.84
2018-08-27T16:15:29.773Z,23.44
2018-08-27T16:17:58.245Z,22.89
2018-08-27T16:20:27.765Z,22.50
2018-08-27T16:22:56.351Z,22.27
2018-08-27T16:25:24.812Z,22.19
2018-08-27T16:27:53.269Z,22.06
2018-08-27T16:30:21.698Z,21.87
2018-08-27T16:32:50.166Z,21.88
2018-08-27T16:35:18.569Z,21.82
2018-08-27T16:37:47.078Z,21.84
2018-08-27T16:40:15.497Z,21.83
2018-08-27T16:42:43.935Z,21.77
2018-08-27T16:45:12.423Z,21.79
2018-08-27T16:47:40.918Z,21.95
2018-08-27T16:50:09.416Z,22.11
2018-08-27T16:52:43.726Z,22.00
2018-08-27T16:55:12.189Z,21.87
2018-08-27T16:57:40.669Z,21.66
2018-08-27T17:00:10.873Z,21.51
2018-08-27T17:02:39.386Z,21.49
2018-08-27T17:05:08.298Z,21.55
2018-08-27T17:07:36.944Z,21.55
2018-08-27T17:10:05.727Z,21.41
2018-08-27T17:12:34.129Z,21.40
2018-08-27T17:15:02.609Z,21.26
2018-08-27T17:17:31.237Z,21.21
2018-08-27T17:19:59.900Z,21.17
2018-08-27T17:22:38.892Z,21.10
2018-08-27T17:25:07.631Z,21.10
2018-08-27T17:27:36.180Z,21.10
2018-08-27T17:30:04.654Z,21.08
2018-08-27T17:32:33.184Z,21.02
2018-08-27T17:35:09.553Z,20.92
2018-08-27T17:37:38.034Z,20.86
2018-08-27T17:40:07.153Z,20.75
2018-08-27T17:42:35.609Z,20.77
2018-08-27T17:45:04.137Z,20.81
2018-08-27T17:47:38.805Z,20.73
2018-08-27T17:50:08.768Z,20.64
2018-08-27T17:52:37.705Z,20.57
2018-08-27T17:55:06.318Z,20.53
2018-08-27T17:57:34.774Z,20.49
2018-08-27T18:00:03.240Z,20.40
2018-08-27T18:02:31.626Z,20.35
2018-08-27T18:05:00.176Z,20.27
2018-08-27T18:07:28.517Z,20.18
2018-08-27T18:10:20.318Z,20.12
2018-08-27T18:12:48.674Z,20.06
2018-08-27T18:15:17.067Z,20.00
2018-08-27T18:17:45.782Z,19.98
2018-08-27T18:20:14.190Z,19.94
2018-08-27T18:22:43.274Z,19.92
2018-08-27T18:28:11.524Z,19.85
2018-08-27T18:30:39.985Z,19.83
2018-08-27T18:33:08.378Z,19.76
2018-08-27T18:35:36.762Z,19.67
2018-08-27T18:38:10.031Z,19.52
2018-08-27T18:40:38.441Z,19.46
2018-08-27T18:43:06.849Z,19.32
2018-08-27T18:45:35.236Z,19.23
2018-08-27T18:48:03.596Z,19.17
2018-08-27T18:50:33.797Z,19.06
2018-08-27T18:53:02.341Z,19.02
2018-08-27T18:55:30.773Z,18.91
2018-08-27T18:57:59.141Z,18.93
2018-08-27T19:00:27.640Z,18.91
2018-08-27T19:02:56.050Z,18.94
2018-08-27T19:05:24.434Z,18.90
2018-08-27T19:07:52.882Z,18.92
2018-08-27T19:10:24.637Z,18.96
2018-08-27T19:12:53.243Z,18.93
2018-08-27T19:15:21.734Z,18.92
2018-08-27T19:17:50.186Z,18.93
2018-08-27T19:20:18.563Z,18.91
2018-08-27T19:22:46.946Z,18.92
2018-08-27T19:25:15.379Z,18.90
2018-08-27T19:27:44.750Z,18.84
2018-08-27T19:30:13.529Z,18.86
2018-08-27T19:32:41.932Z,18.87
2018-08-27T19:35:10.334Z,18.86
2018-08-27T19:37:38.740Z,18.82
2018-08-27T19:40:07.226Z,18.79
2018-08-27T19:42:35.591Z,18.79
2018-08-27T19:45:04.027Z,18.77
2018-08-27T19:47:32.404Z,18.70
2018-08-27T19:50:00.810Z,18.68
2018-08-27T19:52:29.217Z,18.59
2018-08-27T19:54:57.620Z,18.55
2018-08-27T19:57:26.126Z,18.51
2018-08-27T19:59:55.505Z,18.52
2018-08-27T20:02:23.944Z,18.51
2018-08-27T20:04:52.421Z,18.53
2018-08-27T20:07:20.896Z,18.54
2018-08-27T20:09:49.297Z,18.49
2018-08-27T20:12:17.783Z,18.49
2018-08-27T20:14:46.181Z,18.45
2018-08-27T20:17:14.619Z,18.39
2018-08-27T20:19:43.013Z,18.33
2018-08-27T20:22:11.481Z,18.40
2018-08-27T20:24:39.931Z,18.41
2018-08-27T20:27:08.362Z,18.41
2018-08-27T20:29:36.765Z,18.46
2018-08-27T20:32:05.232Z,18.41
2018-08-27T20:34:33.651Z,18.42
2018-08-27T20:37:02.072Z,18.37
2018-08-27T20:39:30.587Z,18.29
2018-08-27T20:41:58.907Z,18.26
2018-08-27T20:44:27.361Z,18.25
2018-08-27T20:46:55.790Z,18.25
2018-08-27T20:49:24.235Z,18.23
2018-08-27T20:51:52.663Z,18.22
2018-08-27T20:54:21.150Z,18.18
2018-08-27T20:56:49.573Z,18.19
2018-08-27T20:59:17.945Z,18.18
2018-08-27T21:01:46.382Z,18.14
2018-08-27T21:04:14.854Z,18.15
2018-08-27T21:06:43.157Z,18.15
2018-08-27T21:09:11.539Z,18.13
2018-08-27T21:11:39.928Z,18.15
2018-08-27T21:15:16.895Z,18.16
2018-08-27T21:17:49.713Z,18.16
2018-08-27T21:20:18.854Z,18.10
2018-08-27T21:22:47.422Z,18.10
2018-08-27T21:25:16.340Z,18.09
2018-08-27T21:27:45.585Z,18.06
2018-08-27T21:30:16.306Z,18.06
2018-08-27T21:32:44.687Z,17.96
2018-08-27T21:35:13.211Z,18.06
2018-08-27T21:37:41.576Z,18.06
2018-08-27T21:40:09.990Z,18.10
2018-08-27T21:42:38.387Z,18.04
2018-08-27T21:45:06.875Z,18.08
2018-08-27T21:47:35.294Z,18.05
2018-08-27T21:50:03.756Z,18.13
2018-08-27T21:52:32.145Z,18.07
2018-08-27T21:55:00.600Z,18.15
2018-08-27T21:57:29.001Z,18.05
2018-08-27T21:59:57.368Z,18.04
2018-08-27T22:02:31.149Z,18.06
2018-08-27T22:04:59.538Z,18.02
2018-08-27T22:07:27.969Z,18.04
2018-08-27T22:09:56.454Z,18.02
2018-08-27T22:12:24.893Z,18.03
2018-08-27T22:14:53.458Z,18.08
2018-08-27T22:17:22.061Z,18.04
2018-08-27T22:19:50.425Z,17.92
2018-08-27T22:22:18.823Z,17.84
2018-08-27T22:24:47.175Z,17.84
2018-08-27T22:27:15.533Z,17.87
2018-08-27T22:29:43.919Z,17.88
2018-08-27T22:32:13.286Z,17.86
2018-08-27T22:34:41.665Z,17.85
2018-08-27T22:37:10.021Z,17.85
2018-08-27T22:39:38.409Z,17.85
2018-08-27T22:42:06.781Z,17.83
2018-08-27T22:44:35.169Z,17.82
2018-08-27T22:47:03.569Z,17.80
2018-08-27T22:49:31.935Z,17.77
2018-08-27T22:52:01.091Z,17.76
2018-08-27T22:54:29.557Z,17.76
2018-08-27T22:56:57.928Z,17.77
2018-08-27T22:59:26.282Z,17.77
2018-08-27T23:01:54.729Z,17.75
2018-08-27T23:04:28.415Z,17.75
2018-08-27T23:06:56.857Z,17.74
2018-08-27T23:09:25.345Z,17.73
2018-08-27T23:11:53.716Z,17.68
2018-08-27T23:14:22.065Z,17.63
2018-08-27T23:16:50.651Z,17.60
2018-08-27T23:19:19.215Z,17.54
2018-08-27T23:21:47.661Z,17.53
2018-08-27T23:24:16.044Z,17.55
2018-08-27T23:26:44.385Z,17.54
2018-08-27T23:29:12.765Z,17.56
2018-08-27T23:31:41.164Z,17.56
2018-08-27T23:34:09.585Z,17.56
2018-08-27T23:36:38.040Z,17.54
2018-08-27T23:39:07.437Z,17.56
2018-08-27T23:41:35.829Z,17.53
2018-08-27T23:44:04.364Z,17.55
2018-08-27T23:46:32.770Z,17.50
2018-08-27T23:49:01.276Z,17.49
2018-08-27T23:51:29.629Z,17.49
2018-08-27T23:53:58.065Z,17.50
2018-08-27T23:56:26.474Z,17.48
2018-08-27T23:58:54.906Z,17.48
